Time,TemperatureF,DewpointF,PressureIn,WindDirection,WindDirectionDegrees,WindSpeedMPH,WindSpeedGustMPH,Humidity,HourlyPrecipIn,Conditions,Clouds,dailyrainin,SoftwareType,DateUTC
2013-10-17 00:00:00,51.2,48.7,29.82,West,266,2.0,0.0,91,0.00,,OVC003,0.01,VWS V14.01,2013-10-17 04:00:00,
2013-10-17 00:01:00,50.3,47.8,29.83,West,266,2.0,0.0,91,0.00,,OVC003,0.01,VWS V14.01,2013-10-17 04:01:00,
2013-10-17 00:02:00,50.3,47.8,29.83,West,266,2.0,0.0,91,0.00,,OVC003,0.01,VWS V14.01,2013-10-17 04:02:00,
2013-10-17 00:03:00,50.3,47.8,29.83,West,266,2.0,0.0,91,0.00,,OVC003,0.01,VWS V14.01,2013-10-17 04:03:00,
2013-10-17 00:04:00,50.3,47.8,29.83,West,266,2.0,0.0,91,0.00,,OVC003,0.01,VWS V14.01,2013-10-17 04:04:00,
2013-10-17 00:05:00,51.1,48.6,29.82,West,266,2.0,0.0,91,0.00,,OVC003,0.01,VWS V14.01,2013-10-17 04:05:00,
2013-10-17 00:06:00,50.3,48.1,29.83,West,266,2.0,0.0,92,0.00,,OVC003,0.00,VWS V14.01,2013-10-17 04:06:00,
2013-10-17 00:10:00,51.0,48.5,29.82,West,266,2.0,0.0,91,0.00,,OVC003,0.01,VWS V14.01,2013-10-17 04:10:00,
2013-10-17 00:11:00,50.2,48.0,29.83,West,266,2.0,0.0,92,0.00,,OVC003,0.00,VWS V14.01,2013-10-17 04:11:00,
2013-10-17 00:12:00,50.3,48.1,29.83,West,266,2.0,0.0,92,0.00,,OVC003,0.00,VWS V14.01,2013-10-17 04:12:00,
2013-10-17 00:15:00,51.0,48.5,29.82,West,266,2.0,0.0,91,0.00,,OVC003,0.01,VWS V14.01,2013-10-17 04:15:00,
2013-10-17 00:17:00,50.2,48.0,29.83,West,266,2.0,0.0,92,0.00,,OVC003,0.00,VWS V14.01,2013-10-17 04:17:00,
2013-10-17 00:20:00,50.9,48.4,29.82,West,266,2.0,0.0,91,0.00,,OVC003,0.01,VWS V14.01,2013-10-17 04:20:00,
2013-10-17 00:22:00,50.2,48.0,29.83,West,266,2.0,0.0,92,0.00,,OVC003,0.00,VWS V14.01,2013-10-17 04:22:00,
2013-10-17 00:25:00,50.8,48.3,29.82,West,266,2.0,0.0,91,0.00,,OVC003,0.01,VWS V14.01,2013-10-17 04:25:00,
2013-10-17 00:27:00,50.1,47.9,29.83,West,266,2.0,0.0,92,0.00,,OVC003,0.00,VWS V14.01,2013-10-17 04:27:00,
2013-10-17 00:30:00,50.6,48.1,29.82,West,266,2.0,0.0,91,0.00,,OVC003,0.01,VWS V14.01,2013-10-17 04:30:00,
2013-10-17 00:32:00,50.1,47.9,29.83,West,266,2.0,0.0,92,0.00,,OVC003,0.00,VWS V14.01,2013-10-17 04:32:00,
2013-10-17 00:35:00,50.5,48.0,29.82,West,266,2.0,0.0,91,0.00,,OVC003,0.01,VWS V14.01,2013-10-17 04:35:00,
2013-10-17 00:37:00,50.0,47.8,29.83,West,266,2.0,0.0,92,0.00,,OVC003,0.00,VWS V14.01,2013-10-17 04:37:00,
2013-10-17 00:40:00,50.4,47.9,29.82,West,266,2.0,0.0,91,0.00,,OVC003,0.01,VWS V14.01,2013-10-17 04:40:00,
2013-10-17 00:42:00,50.0,47.8,29.83,West,266,2.0,0.0,92,0.00,,OVC003,0.00,VWS V14.01,2013-10-17 04:42:00,
2013-10-17 00:45:00,50.4,47.9,29.83,West,266,2.0,0.0,91,0.00,,OVC003,0.01,VWS V14.01,2013-10-17 04:45:00,
2013-10-17 00:47:00,49.9,47.7,29.83,West,266,2.0,0.0,92,0.00,,OVC003,0.00,VWS V14.01,2013-10-17 04:47:00,
2013-10-17 00:50:00,50.3,47.8,29.83,West,266,2.0,0.0,91,0.00,,OVC003,0.01,VWS V14.01,2013-10-17 04:50:00,
2013-10-17 00:52:00,49.9,47.7,29.83,West,266,2.0,0.0,92,0.00,,OVC003,0.00,VWS V14.01,2013-10-17 04:52:00,
2013-10-17 00:55:00,50.3,47.8,29.83,West,266,2.0,0.0,91,0.00,,OVC003,0.01,VWS V14.01,2013-10-17 04:55:00,
2013-10-17 00:57:00,49.9,47.7,29.83,West,266,2.0,0.0,92,0.00,,OVC003,0.00,VWS V14.01,2013-10-17 04:57:00,
2013-10-17 01:00:00,50.3,47.8,29.83,West,266,2.0,0.0,91,0.00,,OVC003,0.01,VWS V14.01,2013-10-17 05:00:00,
2013-10-17 01:02:00,49.8,47.6,29.83,West,266,2.0,0.0,92,0.00,,OVC003,0.00,VWS V14.01,2013-10-17 05:02:00,
2013-10-17 01:05:00,50.3,48.1,29.83,West,266,2.0,0.0,92,0.00,,OVC003,0.00,VWS V14.01,2013-10-17 05:05:00,
2013-10-17 01:07:00,49.8,47.6,29.83,West,266,2.0,0.0,92,0.00,,OVC003,0.00,VWS V14.01,2013-10-17 05:07:00,
2013-10-17 01:10:00,50.2,48.0,29.83,West,266,2.0,0.0,92,0.00,,OVC003,0.00,VWS V14.01,2013-10-17 05:10:00,
2013-10-17 01:12:00,49.7,47.5,29.83,West,266,2.0,0.0,92,0.00,,OVC003,0.00,VWS V14.01,2013-10-17 05:12:00,
2013-10-17 01:15:00,50.2,48.0,29.83,West,266,2.0,0.0,92,0.00,,OVC003,0.00,VWS V14.01,2013-10-17 05:15:00,
2013-10-17 01:17:00,49.7,47.5,29.83,West,266,2.0,0.0,92,0.00,,OVC003,0.00,VWS V14.01,2013-10-17 05:17:00,
2013-10-17 01:20:00,50.1,47.9,29.83,West,266,2.0,0.0,92,0.00,,OVC003,0.00,VWS V14.01,2013-10-17 05:20:00,
2013-10-17 01:22:00,49.7,47.5,29.83,West,266,2.0,0.0,92,0.00,,OVC003,0.00,VWS V14.01,2013-10-17 05:22:00,
2013-10-17 01:25:00,50.1,47.9,29.83,West,266,2.0,0.0,92,0.00,,OVC003,0.00,VWS V14.01,2013-10-17 05:25:00,
2013-10-17 01:27:00,49.7,47.5,29.83,West,266,2.0,0.0,92,0.00,,OVC003,0.00,VWS V14.01,2013-10-17 05:27:00,
2013-10-17 01:30:00,50.0,47.8,29.83,West,266,2.0,0.0,92,0.00,,OVC003,0.00,VWS V14.01,2013-10-17 05:30:00,
2013-10-17 01:32:00,49.7,47.5,29.83,West,266,2.0,0.0,92,0.00,,OVC003,0.00,VWS V14.01,2013-10-17 05:32:00,
2013-10-17 01:35:00,50.0,47.8,29.83,West,266,2.0,0.0,92,0.00,,OVC003,0.00,VWS V14.01,2013-10-17 05:35:00,
2013-10-17 01:37:00,49.7,47.5,29.82,West,266,2.0,0.0,92,0.00,,OVC003,0.00,VWS V14.01,2013-10-17 05:37:00,
2013-10-17 01:40:00,50.0,47.8,29.83,West,266,2.0,0.0,92,0.00,,OVC003,0.00,VWS V14.01,2013-10-17 05:40:00,
2013-10-17 01:42:00,49.7,47.5,29.82,West,266,2.0,0.0,92,0.00,,OVC003,0.00,VWS V14.01,2013-10-17 05:42:00,
2013-10-17 01:45:00,49.9,47.7,29.83,West,266,2.0,0.0,92,0.00,,OVC003,0.00,VWS V14.01,2013-10-17 05:45:00,
2013-10-17 01:47:00,49.6,47.4,29.82,West,266,2.0,0.0,92,0.00,,OVC003,0.00,VWS V14.01,2013-10-17 05:47:00,
2013-10-17 01:50:00,49.9,47.7,29.83,West,266,2.0,0.0,92,0.00,,OVC003,0.00,VWS V14.01,2013-10-17 05:50:00,
2013-10-17 01:52:00,49.6,47.4,29.82,West,266,2.0,0.0,92,0.00,,OVC003,0.00,VWS V14.01,2013-10-17 05:52:00,
2013-10-17 01:55:00,49.8,47.6,29.83,West,266,2.0,0.0,92,0.00,,OVC003,0.00,VWS V14.01,2013-10-17 05:55:00,
2013-10-17 01:57:00,49.6,47.4,29.82,West,266,2.0,0.0,92,0.00,,OVC003,0.00,VWS V14.01,2013-10-17 05:57:00,
2013-10-17 02:00:00,49.8,47.6,29.83,West,266,2.0,0.0,92,0.00,,OVC003,0.00,VWS V14.01,2013-10-17 06:00:00,
2013-10-17 02:02:00,49.6,47.4,29.82,West,266,2.0,0.0,92,0.00,,OVC003,0.00,VWS V14.01,2013-10-17 06:02:00,
2013-10-17 02:05:00,49.8,47.6,29.83,West,266,2.0,0.0,92,0.00,,OVC003,0.00,VWS V14.01,2013-10-17 06:05:00,
2013-10-17 02:07:00,49.5,47.3,29.82,West,266,2.0,0.0,92,0.00,,OVC003,0.00,VWS V14.01,2013-10-17 06:07:00,
2013-10-17 02:10:00,49.7,47.5,29.83,West,266,2.0,0.0,92,0.00,,OVC003,0.00,VWS V14.01,2013-10-17 06:10:00,
2013-10-17 02:12:00,49.5,47.3,29.82,West,266,2.0,0.0,92,0.00,,OVC003,0.00,VWS V14.01,2013-10-17 06:12:00,
2013-10-17 02:15:00,49.7,47.5,29.83,West,266,2.0,0.0,92,0.00,,OVC003,0.00,VWS V14.01,2013-10-17 06:15:00,
2013-10-17 02:17:00,49.5,47.3,29.82,West,266,2.0,0.0,92,0.00,,OVC003,0.00,VWS V14.01,2013-10-17 06:17:00,
2013-10-17 02:20:00,49.7,47.5,29.83,West,266,2.0,0.0,92,0.00,,OVC003,0.00,VWS V14.01,2013-10-17 06:20:00,
2013-10-17 02:22:00,49.4,47.2,29.82,West,266,2.0,0.0,92,0.00,,OVC003,0.00,VWS V14.01,2013-10-17 06:22:00,
2013-10-17 02:25:00,49.7,47.5,29.83,West,266,2.0,0.0,92,0.00,,OVC003,0.00,VWS V14.01,2013-10-17 06:25:00,
2013-10-17 02:27:00,49.4,47.2,29.82,West,266,2.0,0.0,92,0.00,,OVC003,0.00,VWS V14.01,2013-10-17 06:27:00,
2013-10-17 02:30:00,49.7,47.5,29.82,West,266,2.0,0.0,92,0.00,,OVC003,0.00,VWS V14.01,2013-10-17 06:30:00,
2013-10-17 02:32:00,49.4,47.2,29.82,West,266,2.0,0.0,92,0.00,,OVC003,0.00,VWS V14.01,2013-10-17 06:32:00,
2013-10-17 02:35:00,49.7,47.5,29.82,West,266,2.0,0.0,92,0.00,,OVC003,0.00,VWS V14.01,2013-10-17 06:35:00,
2013-10-17 02:37:00,49.4,47.2,29.83,West,266,2.0,0.0,92,0.00,,OVC003,0.00,VWS V14.01,2013-10-17 06:37:00,
2013-10-17 02:40:00,49.7,47.5,29.82,West,266,2.0,0.0,92,0.00,,OVC003,0.00,VWS V14.01,2013-10-17 06:40:00,
2013-10-17 02:42:00,49.4,47.2,29.83,West,266,2.0,0.0,92,0.00,,OVC003,0.00,VWS V14.01,2013-10-17 06:42:00,
2013-10-17 02:45:00,49.6,47.4,29.82,West,266,2.0,0.0,92,0.00,,OVC003,0.00,VWS V14.01,2013-10-17 06:45:00,
2013-10-17 02:47:00,49.3,47.1,29.83,West,266,2.0,0.0,92,0.00,,OVC003,0.00,VWS V14.01,2013-10-17 06:47:00,
2013-10-17 02:50:00,49.6,47.4,29.82,West,266,2.0,0.0,92,0.00,,OVC003,0.00,VWS V14.01,2013-10-17 06:50:00,
2013-10-17 02:52:00,49.3,47.1,29.83,West,266,2.0,0.0,92,0.00,,OVC003,0.00,VWS V14.01,2013-10-17 06:52:00,
2013-10-17 02:55:00,49.6,47.4,29.82,West,266,2.0,0.0,92,0.00,,OVC003,0.00,VWS V14.01,2013-10-17 06:55:00,
2013-10-17 02:57:00,49.3,47.1,29.83,West,266,2.0,0.0,92,0.00,,OVC003,0.00,VWS V14.01,2013-10-17 06:57:00,
2013-10-17 03:00:00,49.5,47.3,29.82,West,266,2.0,0.0,92,0.00,,OVC003,0.00,VWS V14.01,2013-10-17 07:00:00,
2013-10-17 03:02:00,49.3,47.1,29.83,West,266,2.0,0.0,92,0.00,,OVC003,0.00,VWS V14.01,2013-10-17 07:02:00,
2013-10-17 03:05:00,49.5,47.3,29.82,West,266,2.0,0.0,92,0.00,,OVC003,0.00,VWS V14.01,2013-10-17 07:05:00,
2013-10-17 03:07:00,49.2,47.0,29.83,West,266,2.0,0.0,92,0.00,,OVC003,0.00,VWS V14.01,2013-10-17 07:07:00,
2013-10-17 03:10:00,49.5,47.3,29.82,West,266,2.0,0.0,92,0.00,,OVC003,0.00,VWS V14.01,2013-10-17 07:10:00,
2013-10-17 03:12:00,49.2,47.0,29.83,West,266,2.0,0.0,92,0.00,,OVC003,0.00,VWS V14.01,2013-10-17 07:12:00,
2013-10-17 03:15:00,49.5,47.3,29.82,West,266,2.0,0.0,92,0.00,,OVC003,0.00,VWS V14.01,2013-10-17 07:15:00,
2013-10-17 03:17:00,49.2,47.0,29.83,West,266,2.0,0.0,92,0.00,,OVC003,0.00,VWS V14.01,2013-10-17 07:17:00,
2013-10-17 03:20:00,49.4,47.2,29.82,West,266,2.0,0.0,92,0.00,,OVC003,0.00,VWS V14.01,2013-10-17 07:20:00,
2013-10-17 03:22:00,49.2,47.0,29.83,West,266,2.0,0.0,92,0.00,,OVC003,0.00,VWS V14.01,2013-10-17 07:22:00,
2013-10-17 03:25:00,49.4,47.2,29.82,West,266,2.0,0.0,92,0.00,,OVC003,0.00,VWS V14.01,2013-10-17 07:25:00,
2013-10-17 03:27:00,49.2,47.0,29.83,West,266,2.0,0.0,92,0.00,,OVC003,0.00,VWS V14.01,2013-10-17 07:27:00,
2013-10-17 03:30:00,49.4,47.2,29.83,West,266,2.0,0.0,92,0.00,,OVC003,0.00,VWS V14.01,2013-10-17 07:30:00,
2013-10-17 03:32:00,49.2,47.0,29.83,West,266,2.0,0.0,92,0.00,,OVC003,0.00,VWS V14.01,2013-10-17 07:32:00,
2013-10-17 03:35:00,49.4,47.2,29.83,West,266,2.0,0.0,92,0.00,,OVC003,0.00,VWS V14.01,2013-10-17 07:35:00,
2013-10-17 03:37:00,49.2,47.0,29.83,West,266,2.0,0.0,92,0.00,,OVC003,0.00,VWS V14.01,2013-10-17 07:37:00,
2013-10-17 03:40:00,49.4,47.2,29.83,West,266,2.0,0.0,92,0.00,,OVC003,0.00,VWS V14.01,2013-10-17 07:40:00,
2013-10-17 03:42:00,49.2,47.0,29.83,West,266,2.0,0.0,92,0.00,,OVC003,0.00,VWS V14.01,2013-10-17 07:42:00,
2013-10-17 03:45:00,49.3,47.1,29.83,West,266,2.0,0.0,92,0.00,,OVC003,0.00,VWS V14.01,2013-10-17 07:45:00,
2013-10-17 03:47:00,49.2,47.0,29.83,West,266,2.0,0.0,92,0.00,,OVC003,0.00,VWS V14.01,2013-10-17 07:47:00,
2013-10-17 03:50:00,49.3,47.1,29.83,West,266,2.0,0.0,92,0.00,,OVC003,0.00,VWS V14.01,2013-10-17 07:50:00,
2013-10-17 03:53:00,49.2,47.0,29.82,West,266,2.0,0.0,92,0.00,,OVC003,0.00,VWS V14.01,2013-10-17 07:53:00,
2013-10-17 03:55:00,49.3,47.1,29.83,West,266,2.0,0.0,92,0.00,,OVC003,0.00,VWS V14.01,2013-10-17 07:55:00,
2013-10-17 03:58:00,49.1,46.9,29.82,West,266,2.0,0.0,92,0.00,,OVC003,0.00,VWS V14.01,2013-10-17 07:58:00,
2013-10-17 04:00:00,49.2,47.0,29.83,West,266,2.0,0.0,92,0.00,,OVC003,0.00,VWS V14.01,2013-10-17 08:00:00,
2013-10-17 04:03:00,49.1,46.9,29.82,West,266,2.0,0.0,92,0.00,,OVC003,0.00,VWS V14.01,2013-10-17 08:03:00,
2013-10-17 04:05:00,49.2,47.0,29.83,West,266,2.0,0.0,92,0.00,,OVC003,0.00,VWS V14.01,2013-10-17 08:05:00,
2013-10-17 04:08:00,49.1,46.9,29.82,West,266,2.0,0.0,92,0.00,,OVC003,0.00,VWS V14.01,2013-10-17 08:08:00,
2013-10-17 04:09:00,49.1,46.9,29.82,West,266,2.0,0.0,92,0.00,,OVC003,0.00,VWS V14.01,2013-10-17 08:09:00,
2013-10-17 04:10:00,49.2,47.0,29.83,West,266,2.0,0.0,92,0.00,,OVC003,0.00,VWS V14.01,2013-10-17 08:10:00,
2013-10-17 04:14:00,49.1,46.9,29.82,West,266,2.0,0.0,92,0.00,,OVC003,0.00,VWS V14.01,2013-10-17 08:14:00,
2013-10-17 04:15:00,49.2,47.0,29.83,West,266,2.0,0.0,92,0.00,,OVC003,0.00,VWS V14.01,2013-10-17 08:15:00,
2013-10-17 04:19:00,49.1,46.9,29.82,West,266,2.0,0.0,92,0.00,,OVC003,0.00,VWS V14.01,2013-10-17 08:19:00,
2013-10-17 04:20:00,49.2,47.0,29.83,West,266,2.0,0.0,92,0.00,,OVC003,0.00,VWS V14.01,2013-10-17 08:20:00,
2013-10-17 04:24:00,49.0,46.8,29.82,West,266,2.0,0.0,92,0.00,,OVC003,0.00,VWS V14.01,2013-10-17 08:24:00,
2013-10-17 04:25:00,49.2,47.0,29.83,West,266,2.0,0.0,92,0.00,,OVC003,0.00,VWS V14.01,2013-10-17 08:25:00,
2013-10-17 04:29:00,49.0,46.8,29.82,West,266,2.0,0.0,92,0.00,,OVC003,0.00,VWS V14.01,2013-10-17 08:29:00,
2013-10-17 04:30:00,49.2,47.0,29.83,West,266,2.0,0.0,92,0.00,,OVC003,0.00,VWS V14.01,2013-10-17 08:30:00,
2013-10-17 04:34:00,49.0,46.8,29.82,West,266,2.0,0.0,92,0.00,,OVC003,0.00,VWS V14.01,2013-10-17 08:34:00,
2013-10-17 04:35:00,49.2,47.0,29.83,West,266,2.0,0.0,92,0.00,,OVC003,0.00,VWS V14.01,2013-10-17 08:35:00,
2013-10-17 04:39:00,49.0,46.8,29.82,West,266,2.0,0.0,92,0.00,,OVC003,0.00,VWS V14.01,2013-10-17 08:39:00,
2013-10-17 04:40:00,49.2,47.0,29.83,West,266,2.0,0.0,92,0.00,,OVC003,0.00,VWS V14.01,2013-10-17 08:40:00,
2013-10-17 04:44:00,48.9,46.7,29.82,West,266,2.0,0.0,92,0.00,,OVC003,0.00,VWS V14.01,2013-10-17 08:44:00,
2013-10-17 04:45:00,49.2,47.0,29.82,West,266,2.0,0.0,92,0.00,,OVC003,0.00,VWS V14.01,2013-10-17 08:45:00,
2013-10-17 04:49:00,48.9,46.7,29.82,West,266,2.0,0.0,92,0.00,,OVC003,0.00,VWS V14.01,2013-10-17 08:49:00,
2013-10-17 04:50:00,49.1,46.9,29.82,West,266,2.0,0.0,92,0.00,,OVC003,0.00,VWS V14.01,2013-10-17 08:50:00,
2013-10-17 04:54:00,48.8,46.6,29.82,West,266,2.0,0.0,92,0.00,,OVC003,0.00,VWS V14.01,2013-10-17 08:54:00,
2013-10-17 04:55:00,49.1,46.9,29.82,West,266,2.0,0.0,92,0.00,,OVC003,0.00,VWS V14.01,2013-10-17 08:55:00,
2013-10-17 04:59:00,48.8,46.6,29.82,West,266,2.0,0.0,92,0.00,,OVC003,0.00,VWS V14.01,2013-10-17 08:59:00,
2013-10-17 05:00:00,49.1,46.9,29.82,West,266,2.0,0.0,92,0.00,,OVC003,0.00,VWS V14.01,2013-10-17 09:00:00,
2013-10-17 05:04:00,48.7,46.5,29.82,West,266,2.0,0.0,92,0.00,,OVC003,0.00,VWS V14.01,2013-10-17 09:04:00,
2013-10-17 05:05:00,49.1,46.9,29.82,West,266,2.0,0.0,92,0.00,,OVC003,0.00,VWS V14.01,2013-10-17 09:05:00,
2013-10-17 05:09:00,48.6,46.4,29.82,West,266,2.0,0.0,92,0.00,,OVC003,0.00,VWS V14.01,2013-10-17 09:09:00,
2013-10-17 05:10:00,49.1,46.9,29.82,West,266,2.0,0.0,92,0.00,,OVC003,0.00,VWS V14.01,2013-10-17 09:10:00,
2013-10-17 05:14:00,48.6,46.4,29.82,West,266,2.0,0.0,92,0.00,,OVC003,0.00,VWS V14.01,2013-10-17 09:14:00,
2013-10-17 05:15:00,49.1,46.9,29.82,West,266,2.0,0.0,92,0.00,,OVC003,0.00,VWS V14.01,2013-10-17 09:15:00,
2013-10-17 05:19:00,48.5,46.3,29.82,West,266,2.0,0.0,92,0.00,,OVC003,0.00,VWS V14.01,2013-10-17 09:19:00,
2013-10-17 05:20:00,49.0,46.8,29.82,West,266,2.0,0.0,92,0.00,,OVC003,0.00,VWS V14.01,2013-10-17 09:20:00,
2013-10-17 05:24:00,48.5,46.3,29.82,West,266,2.0,0.0,92,0.00,,OVC003,0.00,VWS V14.01,2013-10-17 09:24:00,
2013-10-17 05:25:00,49.0,46.8,29.82,West,266,2.0,0.0,92,0.00,,OVC003,0.00,VWS V14.01,2013-10-17 09:25:00,
2013-10-17 05:29:00,48.4,46.2,29.82,West,266,2.0,0.0,92,0.00,,OVC003,0.00,VWS V14.01,2013-10-17 09:29:00,
2013-10-17 05:30:00,49.0,46.8,29.82,West,266,2.0,0.0,92,0.00,,OVC003,0.00,VWS V14.01,2013-10-17 09:30:00,
2013-10-17 05:34:00,48.3,46.1,29.82,West,266,2.0,0.0,92,0.00,,OVC003,0.00,VWS V14.01,2013-10-17 09:34:00,
2013-10-17 05:35:00,49.0,46.8,29.82,West,266,2.0,0.0,92,0.00,,OVC003,0.00,VWS V14.01,2013-10-17 09:35:00,
2013-10-17 05:39:00,48.2,46.0,29.82,West,266,2.0,0.0,92,0.00,,OVC003,0.00,VWS V14.01,2013-10-17 09:39:00,
2013-10-17 05:40:00,48.9,46.7,29.82,West,266,2.0,0.0,92,0.00,,OVC003,0.00,VWS V14.01,2013-10-17 09:40:00,
2013-10-17 05:44:00,48.1,45.9,29.82,West,266,2.0,0.0,92,0.00,,OVC003,0.00,VWS V14.01,2013-10-17 09:44:00,
2013-10-17 05:45:00,48.9,46.7,29.82,West,266,2.0,0.0,92,0.00,,OVC003,0.00,VWS V14.01,2013-10-17 09:45:00,
2013-10-17 05:49:00,47.9,45.7,29.82,West,266,2.0,0.0,92,0.00,,OVC003,0.00,VWS V14.01,2013-10-17 09:49:00,
2013-10-17 05:50:00,48.8,46.6,29.82,West,266,2.0,0.0,92,0.00,,OVC003,0.00,VWS V14.01,2013-10-17 09:50:00,
2013-10-17 05:54:00,47.9,45.7,29.82,West,266,2.0,0.0,92,0.00,,OVC003,0.00,VWS V14.01,2013-10-17 09:54:00,
2013-10-17 05:55:00,48.8,46.6,29.82,West,266,2.0,0.0,92,0.00,,OVC003,0.00,VWS V14.01,2013-10-17 09:55:00,
2013-10-17 06:00:00,47.8,45.6,29.82,West,266,2.0,0.0,92,0.00,,OVC003,0.00,VWS V14.01,2013-10-17 10:00:00,
2013-10-17 06:05:00,47.8,45.6,29.82,West,266,2.0,0.0,92,0.00,,OVC003,0.00,VWS V14.01,2013-10-17 10:05:00,
2013-10-17 06:10:00,47.8,45.9,29.82,West,266,2.0,0.0,93,0.00,,OVC003,0.00,VWS V14.01,2013-10-17 10:10:00,
2013-10-17 06:15:00,47.7,45.8,29.82,West,266,2.0,0.0,93,0.00,,OVC003,0.00,VWS V14.01,2013-10-17 10:15:00,
2013-10-17 06:20:00,47.6,45.7,29.81,West,266,2.0,0.0,93,0.00,,OVC003,0.00,VWS V14.01,2013-10-17 10:20:00,
2013-10-17 06:25:00,47.6,45.7,29.81,West,266,2.0,0.0,93,0.00,,OVC003,0.00,VWS V14.01,2013-10-17 10:25:00,
2013-10-17 06:30:00,47.5,45.3,29.81,West,266,2.0,0.0,92,0.00,,OVC003,0.00,VWS V14.01,2013-10-17 10:30:00,
2013-10-17 06:35:00,47.5,45.6,29.81,West,266,2.0,0.0,93,0.00,,OVC003,0.00,VWS V14.01,2013-10-17 10:35:00,
2013-10-17 06:40:00,47.5,45.6,29.81,West,266,2.0,0.0,93,0.00,,OVC003,0.00,VWS V14.01,2013-10-17 10:40:00,
2013-10-17 06:45:00,47.4,45.5,29.81,West,266,2.0,0.0,93,0.00,,OVC003,0.00,VWS V14.01,2013-10-17 10:45:00,
2013-10-17 06:50:00,47.4,45.5,29.81,West,266,2.0,0.0,93,0.00,,OVC003,0.00,VWS V14.01,2013-10-17 10:50:00,
2013-10-17 06:55:00,47.4,45.5,29.81,West,266,2.0,0.0,93,0.00,,OVC003,0.00,VWS V14.01,2013-10-17 10:55:00,
2013-10-17 07:00:00,47.3,45.4,29.81,West,266,2.0,0.0,93,0.00,,OVC003,0.00,VWS V14.01,2013-10-17 11:00:00,
2013-10-17 07:05:00,47.2,45.3,29.81,West,266,2.0,0.0,93,0.00,,OVC003,0.00,VWS V14.01,2013-10-17 11:05:00,
2013-10-17 07:10:00,47.1,45.2,29.81,West,266,2.0,0.0,93,0.00,,OVC003,0.00,VWS V14.01,2013-10-17 11:10:00,
2013-10-17 07:15:00,47.0,45.1,29.81,West,266,2.0,0.0,93,0.00,,OVC003,0.00,VWS V14.01,2013-10-17 11:15:00,
2013-10-17 07:20:00,46.9,45.0,29.81,West,266,2.0,0.0,93,0.00,,OVC003,0.00,VWS V14.01,2013-10-17 11:20:00,
2013-10-17 07:25:00,46.9,45.0,29.81,West,266,2.0,0.0,93,0.00,,OVC003,0.00,VWS V14.01,2013-10-17 11:25:00,
2013-10-17 07:30:00,46.8,44.9,29.81,West,266,2.0,0.0,93,0.00,,OVC003,0.00,VWS V14.01,2013-10-17 11:30:00,
2013-10-17 07:35:00,46.8,44.9,29.81,West,266,2.0,0.0,93,0.00,,OVC003,0.00,VWS V14.01,2013-10-17 11:35:00,
2013-10-17 07:40:00,46.8,44.9,29.81,West,266,2.0,0.0,93,0.00,,OVC003,0.00,VWS V14.01,2013-10-17 11:40:00,
2013-10-17 07:45:00,46.7,44.8,29.81,West,266,2.0,0.0,93,0.00,,OVC003,0.00,VWS V14.01,2013-10-17 11:45:00,
2013-10-17 07:50:00,46.7,44.8,29.81,West,266,2.0,0.0,93,0.00,,OVC003,0.00,VWS V14.01,2013-10-17 11:50:00,
2013-10-17 07:55:00,46.7,44.8,29.81,West,266,2.0,0.0,93,0.00,,OVC003,0.00,VWS V14.01,2013-10-17 11:55:00,
2013-10-17 08:00:00,46.8,44.9,29.81,West,266,2.0,0.0,93,0.00,,OVC003,0.00,VWS V14.01,2013-10-17 12:00:00,
2013-10-17 08:05:00,46.8,44.9,29.81,West,266,2.0,0.0,93,0.00,,OVC003,0.00,VWS V14.01,2013-10-17 12:05:00,
2013-10-17 08:10:00,46.8,44.9,29.81,West,266,2.0,0.0,93,0.00,,OVC003,0.00,VWS V14.01,2013-10-17 12:10:00,
2013-10-17 08:15:00,46.8,44.9,29.81,West,266,2.0,0.0,93,0.00,,OVC003,0.00,VWS V14.01,2013-10-17 12:15:00,
2013-10-17 08:20:00,46.8,44.9,29.81,West,266,2.0,0.0,93,0.00,,OVC003,0.00,VWS V14.01,2013-10-17 12:20:00,
2013-10-17 08:25:00,46.8,44.9,29.81,West,266,2.0,0.0,93,0.00,,OVC003,0.00,VWS V14.01,2013-10-17 12:25:00,
2013-10-17 08:30:00,46.8,44.9,29.81,West,266,2.0,0.0,93,0.00,,OVC003,0.00,VWS V14.01,2013-10-17 12:30:00,
2013-10-17 08:31:00,46.8,44.9,29.81,West,266,2.0,0.0,93,0.00,,OVC003,0.00,VWS V14.01,2013-10-17 12:31:00,
2013-10-17 08:35:00,46.7,44.8,29.81,West,266,2.0,0.0,93,0.00,,OVC003,0.00,VWS V14.01,2013-10-17 12:35:00,
2013-10-17 08:36:00,46.8,44.9,29.82,West,266,2.0,0.0,93,0.00,,OVC003,0.00,VWS V14.01,2013-10-17 12:36:00,
2013-10-17 08:40:00,46.7,44.8,29.81,West,266,2.0,0.0,93,0.00,,OVC003,0.00,VWS V14.01,2013-10-17 12:40:00,
2013-10-17 08:41:00,46.8,44.9,29.82,West,266,2.0,0.0,93,0.00,,OVC003,0.00,VWS V14.01,2013-10-17 12:41:00,
2013-10-17 08:45:00,46.7,44.8,29.81,West,266,2.0,0.0,93,0.00,,OVC003,0.00,VWS V14.01,2013-10-17 12:45:00,
2013-10-17 08:46:00,46.9,45.0,29.82,West,266,2.0,0.0,93,0.00,,OVC003,0.00,VWS V14.01,2013-10-17 12:46:00,
2013-10-17 08:50:00,46.7,44.8,29.81,West,266,2.0,0.0,93,0.00,,OVC003,0.00,VWS V14.01,2013-10-17 12:50:00,
2013-10-17 08:51:00,46.9,45.0,29.82,West,266,2.0,0.0,93,0.00,,OVC003,0.00,VWS V14.01,2013-10-17 12:51:00,
2013-10-17 08:55:00,46.7,44.8,29.81,West,266,2.0,0.0,93,0.00,,OVC003,0.00,VWS V14.01,2013-10-17 12:55:00,
2013-10-17 08:56:00,47.0,45.1,29.82,West,266,2.0,0.0,93,0.00,,OVC003,0.00,VWS V14.01,2013-10-17 12:56:00,
2013-10-17 09:00:00,46.8,44.9,29.81,West,266,2.0,0.0,93,0.00,,OVC003,0.00,VWS V14.01,2013-10-17 13:00:00,
2013-10-17 09:01:00,47.1,45.2,29.82,West,266,2.0,0.0,93,0.00,,OVC003,0.00,VWS V14.01,2013-10-17 13:01:00,
2013-10-17 09:05:00,46.8,44.9,29.81,West,266,2.0,0.0,93,0.00,,OVC003,0.00,VWS V14.01,2013-10-17 13:05:00,
2013-10-17 09:06:00,47.2,45.3,29.82,West,266,2.0,0.0,93,0.00,,OVC003,0.00,VWS V14.01,2013-10-17 13:06:00,
2013-10-17 09:10:00,46.8,44.9,29.81,West,266,2.0,0.0,93,0.00,,OVC003,0.00,VWS V14.01,2013-10-17 13:10:00,
2013-10-17 09:11:00,47.2,45.3,29.82,West,266,2.0,0.0,93,0.00,,OVC003,0.00,VWS V14.01,2013-10-17 13:11:00,
2013-10-17 09:15:00,46.8,44.9,29.81,West,266,2.0,0.0,93,0.00,,OVC003,0.00,VWS V14.01,2013-10-17 13:15:00,
2013-10-17 09:16:00,47.3,45.4,29.82,West,266,2.0,0.0,93,0.00,,OVC003,0.00,VWS V14.01,2013-10-17 13:16:00,
2013-10-17 09:20:00,46.8,44.9,29.81,West,266,2.0,0.0,93,0.00,,OVC003,0.00,VWS V14.01,2013-10-17 13:20:00,
2013-10-17 09:21:00,47.3,45.4,29.82,West,266,2.0,0.0,93,0.00,,OVC003,0.00,VWS V14.01,2013-10-17 13:21:00,
2013-10-17 09:25:00,46.8,44.9,29.81,West,266,2.0,0.0,93,0.00,,OVC003,0.00,VWS V14.01,2013-10-17 13:25:00,
2013-10-17 09:26:00,47.3,45.4,29.82,West,266,2.0,0.0,93,0.00,,OVC003,0.00,VWS V14.01,2013-10-17 13:26:00,
2013-10-17 09:30:00,46.8,44.9,29.82,West,266,2.0,0.0,93,0.00,,OVC003,0.00,VWS V14.01,2013-10-17 13:30:00,
2013-10-17 09:31:00,47.4,45.5,29.82,West,266,2.0,0.0,93,0.00,,OVC003,0.00,VWS V14.01,2013-10-17 13:31:00,
2013-10-17 09:35:00,46.8,44.9,29.82,West,266,2.0,0.0,93,0.00,,OVC003,0.00,VWS V14.01,2013-10-17 13:35:00,
2013-10-17 09:36:00,47.3,45.7,29.81,West,266,2.0,0.0,94,0.00,,OVC003,0.00,VWS V14.01,2013-10-17 13:36:00,
2013-10-17 09:40:00,46.9,45.0,29.82,West,266,2.0,0.0,93,0.00,,OVC003,0.00,VWS V14.01,2013-10-17 13:40:00,
2013-10-17 09:41:00,47.3,45.4,29.81,West,266,2.0,0.0,93,0.00,,OVC003,0.00,VWS V14.01,2013-10-17 13:41:00,
2013-10-17 09:45:00,46.9,45.0,29.82,West,266,2.0,0.0,93,0.00,,OVC003,0.00,VWS V14.01,2013-10-17 13:45:00,
2013-10-17 09:46:00,47.4,45.5,29.81,West,266,2.0,0.0,93,0.00,,OVC003,0.00,VWS V14.01,2013-10-17 13:46:00,
2013-10-17 09:50:00,47.0,45.1,29.82,West,266,2.0,0.0,93,0.00,,OVC003,0.00,VWS V14.01,2013-10-17 13:50:00,
2013-10-17 09:51:00,47.4,45.8,29.81,West,266,2.0,0.0,94,0.00,,OVC003,0.00,VWS V14.01,2013-10-17 13:51:00,
2013-10-17 09:55:00,47.0,45.1,29.82,West,266,2.0,0.0,93,0.00,,OVC003,0.00,VWS V14.01,2013-10-17 13:55:00,
2013-10-17 09:56:00,47.3,45.4,29.81,West,266,2.0,0.0,93,0.00,,OVC003,0.00,VWS V14.01,2013-10-17 13:56:00,
2013-10-17 10:00:00,47.2,45.3,29.82,West,266,2.0,0.0,93,0.00,,OVC003,0.00,VWS V14.01,2013-10-17 14:00:00,
2013-10-17 10:01:00,47.4,45.5,29.81,West,266,2.0,0.0,93,0.00,,OVC003,0.00,VWS V14.01,2013-10-17 14:01:00,
2013-10-17 10:05:00,47.2,45.3,29.82,West,266,2.0,0.0,93,0.00,,OVC003,0.00,VWS V14.01,2013-10-17 14:05:00,
2013-10-17 10:06:00,47.4,45.5,29.81,West,266,2.0,0.0,93,0.00,,OVC003,0.00,VWS V14.01,2013-10-17 14:06:00,
2013-10-17 10:10:00,47.2,45.3,29.82,West,266,2.0,0.0,93,0.00,,OVC003,0.00,VWS V14.01,2013-10-17 14:10:00,
2013-10-17 10:11:00,47.4,45.5,29.81,West,266,2.0,0.0,93,0.00,,OVC003,0.00,VWS V14.01,2013-10-17 14:11:00,
2013-10-17 10:15:00,47.3,45.4,29.82,West,266,2.0,0.0,93,0.00,,OVC003,0.00,VWS V14.01,2013-10-17 14:15:00,
2013-10-17 10:16:00,47.5,45.6,29.81,West,266,2.0,0.0,93,0.00,,OVC003,0.00,VWS V14.01,2013-10-17 14:16:00,
2013-10-17 10:20:00,47.3,45.4,29.82,West,266,2.0,0.0,93,0.00,,OVC003,0.00,VWS V14.01,2013-10-17 14:20:00,
2013-10-17 10:21:00,47.7,45.8,29.81,West,266,2.0,0.0,93,0.00,,OVC003,0.00,VWS V14.01,2013-10-17 14:21:00,
2013-10-17 10:25:00,47.3,45.4,29.82,West,266,2.0,0.0,93,0.00,,OVC003,0.00,VWS V14.01,2013-10-17 14:25:00,
2013-10-17 10:26:00,47.9,46.0,29.81,West,266,2.0,0.0,93,0.00,,OVC003,0.00,VWS V14.01,2013-10-17 14:26:00,
2013-10-17 10:30:00,47.3,45.7,29.81,West,266,2.0,0.0,94,0.00,,OVC003,0.00,VWS V14.01,2013-10-17 14:30:00,
2013-10-17 10:31:00,48.2,46.0,29.81,West,266,2.0,0.0,92,0.00,,OVC003,0.00,VWS V14.01,2013-10-17 14:31:00,
2013-10-17 10:36:00,48.4,46.2,29.81,West,266,2.0,0.0,92,0.00,,OVC003,0.00,VWS V14.01,2013-10-17 14:36:00,
2013-10-17 10:40:00,47.3,45.4,29.81,West,266,2.0,0.0,93,0.00,,OVC003,0.00,VWS V14.01,2013-10-17 14:40:00,
2013-10-17 10:41:00,48.7,46.5,29.81,West,266,2.0,0.0,92,0.00,,OVC003,0.00,VWS V14.01,2013-10-17 14:41:00,
2013-10-17 10:45:00,47.4,45.5,29.81,West,266,2.0,0.0,93,0.00,,OVC003,0.00,VWS V14.01,2013-10-17 14:45:00,
2013-10-17 10:46:00,49.0,46.8,29.81,West,266,2.0,0.0,92,0.00,,OVC003,0.00,VWS V14.01,2013-10-17 14:46:00,
2013-10-17 10:50:00,47.4,45.8,29.81,West,266,2.0,0.0,94,0.00,,OVC003,0.00,VWS V14.01,2013-10-17 14:50:00,
2013-10-17 10:51:00,49.2,47.0,29.81,West,266,2.0,0.0,92,0.00,,OVC003,0.00,VWS V14.01,2013-10-17 14:51:00,
2013-10-17 10:55:00,47.4,45.8,29.81,West,266,2.0,0.0,94,0.00,,OVC003,0.00,VWS V14.01,2013-10-17 14:55:00,
2013-10-17 10:56:00,49.4,46.9,29.81,West,266,2.0,0.0,91,0.00,,OVC003,0.00,VWS V14.01,2013-10-17 14:56:00,
2013-10-17 11:00:00,47.4,45.5,29.81,West,266,2.0,0.0,93,0.00,,OVC003,0.00,VWS V14.01,2013-10-17 15:00:00,
2013-10-17 11:01:00,49.6,47.1,29.79,West,266,2.0,0.0,91,0.00,,OVC003,0.00,VWS V14.01,2013-10-17 15:01:00,
2013-10-17 11:05:00,47.3,45.4,29.81,West,266,2.0,0.0,93,0.00,,OVC003,0.00,VWS V14.01,2013-10-17 15:05:00,
2013-10-17 11:06:00,49.7,47.2,29.79,West,266,2.0,0.0,91,0.00,,OVC003,0.00,VWS V14.01,2013-10-17 15:06:00,
2013-10-17 11:10:00,47.4,45.5,29.81,West,266,2.0,0.0,93,0.00,,OVC003,0.00,VWS V14.01,2013-10-17 15:10:00,
2013-10-17 11:11:00,50.0,47.5,29.79,West,266,2.0,0.0,91,0.00,,OVC003,0.00,VWS V14.01,2013-10-17 15:11:00,
2013-10-17 11:15:00,47.5,45.6,29.81,West,266,2.0,0.0,93,0.00,,OVC003,0.00,VWS V14.01,2013-10-17 15:15:00,
2013-10-17 11:16:00,50.1,47.6,29.79,West,266,2.0,0.0,91,0.00,,OVC003,0.00,VWS V14.01,2013-10-17 15:16:00,
2013-10-17 11:20:00,47.7,45.8,29.81,West,266,2.0,0.0,93,0.00,,OVC003,0.00,VWS V14.01,2013-10-17 15:20:00,
2013-10-17 11:21:00,50.3,47.5,29.79,West,266,2.0,0.0,90,0.00,,OVC003,0.00,VWS V14.01,2013-10-17 15:21:00,
2013-10-17 11:25:00,47.9,46.0,29.81,West,266,2.0,0.0,93,0.00,,OVC003,0.00,VWS V14.01,2013-10-17 15:25:00,
2013-10-17 11:26:00,50.4,47.6,29.79,West,266,2.0,0.0,90,0.00,,OVC003,0.00,VWS V14.01,2013-10-17 15:26:00,
2013-10-17 11:30:00,48.2,46.0,29.81,West,266,2.0,0.0,92,0.00,,OVC003,0.00,VWS V14.01,2013-10-17 15:30:00,
2013-10-17 11:31:00,50.5,47.7,29.78,West,266,2.0,0.0,90,0.00,,OVC003,0.00,VWS V14.01,2013-10-17 15:31:00,
2013-10-17 11:35:00,48.4,46.2,29.81,West,266,2.0,2.0,92,0.00,,OVC003,0.00,VWS V14.01,2013-10-17 15:35:00,
2013-10-17 11:36:00,50.5,47.7,29.78,West,266,2.0,0.0,90,0.00,,OVC003,0.00,VWS V14.01,2013-10-17 15:36:00,
2013-10-17 11:40:00,48.7,46.5,29.81,West,266,2.0,0.0,92,0.00,,OVC003,0.00,VWS V14.01,2013-10-17 15:40:00,
2013-10-17 11:41:00,50.5,47.7,29.78,West,266,2.0,0.0,90,0.00,,OVC003,0.00,VWS V14.01,2013-10-17 15:41:00,
2013-10-17 11:45:00,48.9,46.7,29.81,West,266,2.0,0.0,92,0.00,,OVC003,0.00,VWS V14.01,2013-10-17 15:45:00,
2013-10-17 11:46:00,50.5,47.7,29.78,West,266,2.0,0.0,90,0.00,,OVC003,0.00,VWS V14.01,2013-10-17 15:46:00,
2013-10-17 11:50:00,49.2,46.7,29.81,West,266,2.0,0.0,91,0.00,,OVC003,0.00,VWS V14.01,2013-10-17 15:50:00,
2013-10-17 11:51:00,50.7,47.9,29.78,West,266,2.0,0.0,90,0.00,,OVC003,0.00,VWS V14.01,2013-10-17 15:51:00,
2013-10-17 11:55:00,49.3,46.8,29.81,West,266,2.0,0.0,91,0.00,,OVC003,0.00,VWS V14.01,2013-10-17 15:55:00,
2013-10-17 11:56:00,50.9,47.8,29.78,West,266,2.0,0.0,89,0.00,,OVC003,0.00,VWS V14.01,2013-10-17 15:56:00,
2013-10-17 12:00:00,49.5,47.0,29.79,West,266,2.0,0.0,91,0.00,,OVC003,0.00,VWS V14.01,2013-10-17 16:00:00,
2013-10-17 12:01:00,51.1,48.0,29.77,West,266,2.0,0.0,89,0.00,,OVC003,0.00,VWS V14.01,2013-10-17 16:01:00,
2013-10-17 12:05:00,49.7,47.2,29.79,West,266,2.0,0.0,91,0.00,,OVC003,0.00,VWS V14.01,2013-10-17 16:05:00,
2013-10-17 12:06:00,51.2,48.1,29.77,West,266,2.0,0.0,89,0.00,,OVC003,0.00,VWS V14.01,2013-10-17 16:06:00,
2013-10-17 12:10:00,49.9,47.4,29.79,West,266,2.0,0.0,91,0.00,,OVC003,0.00,VWS V14.01,2013-10-17 16:10:00,
2013-10-17 12:11:00,51.3,47.9,29.77,West,266,2.0,0.0,88,0.00,,OVC003,0.00,VWS V14.01,2013-10-17 16:11:00,
2013-10-17 12:15:00,50.1,47.6,29.79,West,266,2.0,0.0,91,0.00,,OVC003,0.00,VWS V14.01,2013-10-17 16:15:00,
2013-10-17 12:16:00,51.3,47.9,29.78,West,266,2.0,0.0,88,0.00,,OVC003,0.00,VWS V14.01,2013-10-17 16:16:00,
2013-10-17 12:20:00,50.3,47.8,29.79,West,266,2.0,0.0,91,0.00,,OVC003,0.00,VWS V14.01,2013-10-17 16:20:00,
2013-10-17 12:21:00,51.3,47.6,29.78,West,266,2.0,0.0,87,0.00,,OVC003,0.00,VWS V14.01,2013-10-17 16:21:00,
2013-10-17 12:25:00,50.4,47.6,29.79,West,266,2.0,0.0,90,0.00,,OVC003,0.00,VWS V14.01,2013-10-17 16:25:00,
2013-10-17 12:26:00,51.3,47.6,29.78,West,266,2.0,0.0,87,0.00,,OVC003,0.00,VWS V14.01,2013-10-17 16:26:00,
2013-10-17 12:30:00,50.5,47.7,29.78,West,266,2.0,0.0,90,0.00,,OVC003,0.00,VWS V14.01,2013-10-17 16:30:00,
2013-10-17 12:31:00,51.3,47.6,29.78,West,266,2.0,0.0,87,0.00,,OVC003,0.00,VWS V14.01,2013-10-17 16:31:00,
2013-10-17 12:35:00,50.5,47.7,29.78,West,266,2.0,0.0,90,0.00,,OVC003,0.00,VWS V14.01,2013-10-17 16:35:00,
2013-10-17 12:36:00,51.2,47.5,29.78,West,266,2.0,2.0,87,0.00,,OVC003,0.00,VWS V14.01,2013-10-17 16:36:00,
2013-10-17 12:40:00,50.5,47.7,29.78,West,266,2.0,0.0,90,0.00,,OVC003,0.00,VWS V14.01,2013-10-17 16:40:00,
2013-10-17 12:41:00,51.2,47.5,29.78,West,266,2.0,0.0,87,0.00,,OVC003,0.00,VWS V14.01,2013-10-17 16:41:00,
2013-10-17 12:45:00,50.5,47.7,29.78,West,266,2.0,0.0,90,0.00,,OVC003,0.00,VWS V14.01,2013-10-17 16:45:00,
2013-10-17 12:46:00,51.2,47.5,29.76,West,266,2.0,0.0,87,0.00,,OVC003,0.00,VWS V14.01,2013-10-17 16:46:00,
2013-10-17 12:50:00,50.7,47.9,29.78,West,266,2.0,0.0,90,0.00,,OVC003,0.00,VWS V14.01,2013-10-17 16:50:00,
2013-10-17 12:51:00,51.2,47.8,29.76,West,266,2.0,0.0,88,0.00,,OVC003,0.00,VWS V14.01,2013-10-17 16:51:00,
2013-10-17 12:55:00,50.8,47.7,29.78,West,266,2.0,0.0,89,0.00,,OVC003,0.00,VWS V14.01,2013-10-17 16:55:00,
2013-10-17 12:56:00,51.2,47.8,29.76,West,266,2.0,0.0,88,0.00,,OVC003,0.00,VWS V14.01,2013-10-17 16:56:00,
2013-10-17 13:00:00,51.0,47.9,29.77,West,266,2.0,0.0,89,0.00,,OVC003,0.00,VWS V14.01,2013-10-17 17:00:00,
2013-10-17 13:02:00,51.2,47.8,29.75,West,266,2.0,0.0,88,0.00,,OVC003,0.00,VWS V14.01,2013-10-17 17:02:00,
2013-10-17 13:05:00,51.2,48.1,29.77,West,266,2.0,0.0,89,0.00,,OVC003,0.00,VWS V14.01,2013-10-17 17:05:00,
2013-10-17 13:07:00,51.1,47.7,29.75,West,266,2.0,0.0,88,0.00,,OVC003,0.00,VWS V14.01,2013-10-17 17:07:00,
2013-10-17 13:10:00,51.2,47.8,29.77,West,266,2.0,0.0,88,0.00,,OVC003,0.00,VWS V14.01,2013-10-17 17:10:00,
2013-10-17 13:12:00,51.1,48.0,29.75,West,266,2.0,0.0,89,0.00,,OVC003,0.00,VWS V14.01,2013-10-17 17:12:00,
2013-10-17 13:15:00,51.3,47.9,29.78,West,266,2.0,0.0,88,0.00,,OVC003,0.00,VWS V14.01,2013-10-17 17:15:00,
2013-10-17 13:17:00,51.0,47.9,29.75,West,266,2.0,0.0,89,0.00,,OVC003,0.00,VWS V14.01,2013-10-17 17:17:00,
2013-10-17 13:20:00,51.3,47.6,29.78,West,266,2.0,0.0,87,0.00,,OVC003,0.00,VWS V14.01,2013-10-17 17:20:00,
2013-10-17 13:22:00,50.9,47.8,29.75,West,266,2.0,0.0,89,0.00,,OVC003,0.00,VWS V14.01,2013-10-17 17:22:00,
2013-10-17 13:25:00,51.3,47.6,29.78,West,266,2.0,0.0,87,0.00,,OVC003,0.00,VWS V14.01,2013-10-17 17:25:00,
2013-10-17 13:27:00,50.8,47.7,29.75,West,266,2.0,0.0,89,0.00,,OVC003,0.00,VWS V14.01,2013-10-17 17:27:00,
2013-10-17 13:30:00,51.3,47.6,29.78,West,266,2.0,0.0,87,0.00,,OVC003,0.00,VWS V14.01,2013-10-17 17:30:00,
2013-10-17 13:32:00,50.7,47.9,29.74,West,266,2.0,0.0,90,0.00,,OVC003,0.00,VWS V14.01,2013-10-17 17:32:00,
2013-10-17 13:35:00,51.3,47.6,29.78,West,266,2.0,0.0,87,0.00,,OVC003,0.00,VWS V14.01,2013-10-17 17:35:00,
2013-10-17 13:37:00,50.6,47.8,29.74,West,266,2.0,0.0,90,0.00,,OVC003,0.00,VWS V14.01,2013-10-17 17:37:00,
2013-10-17 13:40:00,51.2,47.5,29.78,West,266,2.0,2.0,87,0.00,,OVC003,0.00,VWS V14.01,2013-10-17 17:40:00,
2013-10-17 13:42:00,50.6,47.8,29.74,West,266,2.0,0.0,90,0.00,,OVC003,0.00,VWS V14.01,2013-10-17 17:42:00,
2013-10-17 13:45:00,51.2,47.5,29.76,West,266,2.0,0.0,87,0.00,,OVC003,0.00,VWS V14.01,2013-10-17 17:45:00,
2013-10-17 13:47:00,50.5,47.7,29.73,West,266,2.0,0.0,90,0.00,,OVC003,0.00,VWS V14.01,2013-10-17 17:47:00,
2013-10-17 13:50:00,51.2,47.8,29.76,West,266,2.0,0.0,88,0.00,,OVC003,0.00,VWS V14.01,2013-10-17 17:50:00,
2013-10-17 13:52:00,50.4,47.6,29.73,West,266,2.0,0.0,90,0.01,,OVC003,0.01,VWS V14.01,2013-10-17 17:52:00,
2013-10-17 13:55:00,51.2,47.8,29.76,West,266,2.0,0.0,88,0.00,,OVC003,0.00,VWS V14.01,2013-10-17 17:55:00,
2013-10-17 13:57:00,50.3,47.5,29.73,West,266,2.0,0.0,90,0.01,,OVC003,0.01,VWS V14.01,2013-10-17 17:57:00,
2013-10-17 14:00:00,51.2,47.8,29.75,West,266,2.0,0.0,88,0.00,,OVC003,0.00,VWS V14.01,2013-10-17 18:00:00,
2013-10-17 14:02:00,50.1,47.6,29.73,West,266,2.0,0.0,91,0.01,,OVC003,0.01,VWS V14.01,2013-10-17 18:02:00,
2013-10-17 14:05:00,51.2,47.8,29.75,West,266,2.0,0.0,88,0.00,,OVC003,0.00,VWS V14.01,2013-10-17 18:05:00,
2013-10-17 14:07:00,50.1,47.6,29.73,West,266,2.0,0.0,91,0.02,,OVC003,0.02,VWS V14.01,2013-10-17 18:07:00,
2013-10-17 14:10:00,51.1,48.0,29.75,West,266,2.0,0.0,89,0.00,,OVC003,0.00,VWS V14.01,2013-10-17 18:10:00,
2013-10-17 14:12:00,50.0,47.5,29.73,West,266,2.0,0.0,91,0.03,,OVC003,0.03,VWS V14.01,2013-10-17 18:12:00,
2013-10-17 14:15:00,51.0,47.9,29.75,West,266,2.0,0.0,89,0.00,,OVC003,0.00,VWS V14.01,2013-10-17 18:15:00,
2013-10-17 14:17:00,49.9,47.4,29.72,West,266,2.0,0.0,91,0.03,,OVC003,0.03,VWS V14.01,2013-10-17 18:17:00,
2013-10-17 14:20:00,50.9,47.8,29.75,West,266,2.0,0.0,89,0.00,,OVC003,0.00,VWS V14.01,2013-10-17 18:20:00,
2013-10-17 14:22:00,49.7,47.2,29.72,West,266,2.0,0.0,91,0.04,,OVC003,0.04,VWS V14.01,2013-10-17 18:22:00,
2013-10-17 14:25:00,50.8,47.7,29.75,West,266,2.0,0.0,89,0.00,,OVC003,0.00,VWS V14.01,2013-10-17 18:25:00,
2013-10-17 14:27:00,49.7,47.2,29.72,West,266,2.0,0.0,91,0.04,,OVC003,0.04,VWS V14.01,2013-10-17 18:27:00,
2013-10-17 14:30:00,50.7,47.9,29.74,West,266,2.0,0.0,90,0.00,,OVC003,0.00,VWS V14.01,2013-10-17 18:30:00,
2013-10-17 14:32:00,49.6,47.1,29.71,West,266,2.0,0.0,91,0.05,,OVC003,0.05,VWS V14.01,2013-10-17 18:32:00,
2013-10-17 14:35:00,50.7,47.9,29.74,West,266,2.0,0.0,90,0.00,,OVC003,0.00,VWS V14.01,2013-10-17 18:35:00,
2013-10-17 14:37:00,49.6,47.1,29.71,West,266,2.0,0.0,91,0.06,,OVC003,0.06,VWS V14.01,2013-10-17 18:37:00,
2013-10-17 14:40:00,50.6,47.8,29.74,West,266,2.0,0.0,90,0.00,,OVC003,0.00,VWS V14.01,2013-10-17 18:40:00,
2013-10-17 14:42:00,49.5,47.3,29.71,West,266,2.0,0.0,92,0.07,,OVC003,0.07,VWS V14.01,2013-10-17 18:42:00,
2013-10-17 14:45:00,50.6,47.8,29.73,West,266,2.0,0.0,90,0.00,,OVC003,0.00,VWS V14.01,2013-10-17 18:45:00,
2013-10-17 14:47:00,49.4,47.2,29.71,West,266,2.0,0.0,92,0.08,,OVC003,0.08,VWS V14.01,2013-10-17 18:47:00,
2013-10-17 14:50:00,50.5,47.7,29.73,West,266,2.0,0.0,90,0.01,,OVC003,0.01,VWS V14.01,2013-10-17 18:50:00,
2013-10-17 14:52:00,49.3,47.1,29.71,West,266,2.0,0.0,92,0.08,,OVC003,0.09,VWS V14.01,2013-10-17 18:52:00,
2013-10-17 14:55:00,50.3,47.5,29.73,West,266,2.0,0.0,90,0.01,,OVC003,0.01,VWS V14.01,2013-10-17 18:55:00,
2013-10-17 14:57:00,49.2,47.0,29.71,West,266,2.0,0.0,92,0.08,,OVC003,0.09,VWS V14.01,2013-10-17 18:57:00,
2013-10-17 15:00:00,50.2,47.7,29.73,West,266,2.0,0.0,91,0.01,,OVC003,0.01,VWS V14.01,2013-10-17 19:00:00,
2013-10-17 15:02:00,49.2,47.0,29.70,West,266,2.0,0.0,92,0.08,,OVC003,0.09,VWS V14.01,2013-10-17 19:02:00,
2013-10-17 15:05:00,50.1,47.6,29.73,West,266,2.0,0.0,91,0.02,,OVC003,0.02,VWS V14.01,2013-10-17 19:05:00,
2013-10-17 15:07:00,49.2,47.0,29.70,West,266,2.0,0.0,92,0.08,,OVC003,0.10,VWS V14.01,2013-10-17 19:07:00,
2013-10-17 15:10:00,50.0,47.5,29.73,West,266,2.0,0.0,91,0.03,,OVC003,0.03,VWS V14.01,2013-10-17 19:10:00,
2013-10-17 15:12:00,49.1,46.9,29.70,West,266,2.0,0.0,92,0.08,,OVC003,0.11,VWS V14.01,2013-10-17 19:12:00,
2013-10-17 15:15:00,49.9,47.4,29.72,West,266,2.0,0.0,91,0.03,,OVC003,0.03,VWS V14.01,2013-10-17 19:15:00,
2013-10-17 15:17:00,49.0,46.8,29.70,West,266,2.0,0.0,92,0.10,,OVC003,0.13,VWS V14.01,2013-10-17 19:17:00,
2013-10-17 15:20:00,49.8,47.3,29.72,West,266,2.0,0.0,91,0.03,,OVC003,0.03,VWS V14.01,2013-10-17 19:20:00,
2013-10-17 15:22:00,48.9,46.7,29.70,West,266,2.0,0.0,92,0.11,,OVC003,0.14,VWS V14.01,2013-10-17 19:22:00,
2013-10-17 15:25:00,49.7,47.2,29.72,West,266,2.0,0.0,91,0.04,,OVC003,0.04,VWS V14.01,2013-10-17 19:25:00,
2013-10-17 15:27:00,48.8,46.6,29.70,West,266,2.0,0.0,92,0.11,,OVC003,0.15,VWS V14.01,2013-10-17 19:27:00,
2013-10-17 15:30:00,49.6,47.1,29.71,West,266,2.0,0.0,91,0.05,,OVC003,0.05,VWS V14.01,2013-10-17 19:30:00,
2013-10-17 15:31:00,48.7,46.5,29.69,West,266,2.0,0.0,92,0.11,,OVC003,0.16,VWS V14.01,2013-10-17 19:31:00,
2013-10-17 15:35:00,49.6,47.1,29.71,West,266,2.0,0.0,91,0.05,,OVC003,0.05,VWS V14.01,2013-10-17 19:35:00,
2013-10-17 15:36:00,48.7,46.5,29.69,West,266,2.0,0.0,92,0.12,,OVC003,0.17,VWS V14.01,2013-10-17 19:36:00,
2013-10-17 15:40:00,49.6,47.4,29.71,West,266,2.0,0.0,92,0.07,,OVC003,0.07,VWS V14.01,2013-10-17 19:40:00,
2013-10-17 15:41:00,48.7,46.8,29.69,West,266,2.0,0.0,93,0.11,,OVC003,0.18,VWS V14.01,2013-10-17 19:41:00,
2013-10-17 15:45:00,49.5,47.3,29.71,West,266,2.0,0.0,92,0.08,,OVC003,0.08,VWS V14.01,2013-10-17 19:45:00,
2013-10-17 15:46:00,48.7,46.8,29.69,West,266,2.0,0.0,93,0.11,,OVC003,0.19,VWS V14.01,2013-10-17 19:46:00,
2013-10-17 15:50:00,49.3,47.1,29.71,West,266,2.0,0.0,92,0.08,,OVC003,0.08,VWS V14.01,2013-10-17 19:50:00,
2013-10-17 15:51:00,48.6,46.7,29.69,West,266,2.0,0.0,93,0.11,,OVC003,0.19,VWS V14.01,2013-10-17 19:51:00,
2013-10-17 15:55:00,49.2,47.0,29.71,West,266,2.0,0.0,92,0.08,,OVC003,0.09,VWS V14.01,2013-10-17 19:55:00,
2013-10-17 15:56:00,48.5,46.6,29.69,West,266,2.0,0.0,93,0.10,,OVC003,0.19,VWS V14.01,2013-10-17 19:56:00,
2013-10-17 16:00:00,49.2,47.0,29.70,West,266,2.0,0.0,92,0.08,,OVC003,0.09,VWS V14.01,2013-10-17 20:00:00,
2013-10-17 16:01:00,48.4,46.5,29.68,West,266,2.0,0.0,93,0.11,,OVC003,0.20,VWS V14.01,2013-10-17 20:01:00,
2013-10-17 16:05:00,49.2,47.0,29.70,West,266,2.0,0.0,92,0.09,,OVC003,0.10,VWS V14.01,2013-10-17 20:05:00,
2013-10-17 16:06:00,48.3,46.4,29.68,West,266,2.0,0.0,93,0.11,,OVC003,0.21,VWS V14.01,2013-10-17 20:06:00,
2013-10-17 16:10:00,49.2,47.0,29.70,West,266,2.0,0.0,92,0.09,,OVC003,0.11,VWS V14.01,2013-10-17 20:10:00,
2013-10-17 16:11:00,48.3,46.4,29.68,West,266,2.0,0.0,93,0.10,,OVC003,0.21,VWS V14.01,2013-10-17 20:11:00,
2013-10-17 16:15:00,49.1,46.9,29.70,West,266,2.0,2.0,92,0.09,,OVC003,0.12,VWS V14.01,2013-10-17 20:15:00,
2013-10-17 16:16:00,48.3,46.4,29.68,West,266,2.0,0.0,93,0.11,,OVC003,0.23,VWS V14.01,2013-10-17 20:16:00,
2013-10-17 16:20:00,48.9,46.7,29.70,West,266,2.0,0.0,92,0.10,,OVC003,0.13,VWS V14.01,2013-10-17 20:20:00,
2013-10-17 16:21:00,48.3,46.4,29.68,West,266,2.0,0.0,93,0.12,,OVC003,0.25,VWS V14.01,2013-10-17 20:21:00,
2013-10-17 16:25:00,48.8,46.6,29.70,West,266,2.0,0.0,92,0.12,,OVC003,0.15,VWS V14.01,2013-10-17 20:25:00,
2013-10-17 16:26:00,48.3,46.4,29.68,West,266,2.0,0.0,93,0.12,,OVC003,0.27,VWS V14.01,2013-10-17 20:26:00,
2013-10-17 16:30:00,48.8,46.6,29.69,West,266,2.0,0.0,92,0.12,,OVC003,0.16,VWS V14.01,2013-10-17 20:30:00,
2013-10-17 16:31:00,48.3,46.4,29.68,West,266,3.0,3.0,93,0.14,,OVC003,0.30,VWS V14.01,2013-10-17 20:31:00,
2013-10-17 16:35:00,48.7,46.5,29.69,West,266,2.0,0.0,92,0.12,,OVC003,0.17,VWS V14.01,2013-10-17 20:35:00,
2013-10-17 16:36:00,48.2,46.3,29.68,West,266,2.0,0.0,93,0.15,,OVC003,0.32,VWS V14.01,2013-10-17 20:36:00,
2013-10-17 16:40:00,48.7,46.8,29.69,West,266,2.0,0.0,93,0.13,,OVC003,0.18,VWS V14.01,2013-10-17 20:40:00,
2013-10-17 16:41:00,48.2,46.3,29.68,West,266,3.0,3.0,93,0.15,,OVC003,0.33,VWS V14.01,2013-10-17 20:41:00,
2013-10-17 16:45:00,48.7,46.8,29.69,West,266,2.0,0.0,93,0.11,,OVC003,0.18,VWS V14.01,2013-10-17 20:45:00,
2013-10-17 16:46:00,48.3,46.4,29.67,West,266,2.0,2.0,93,0.16,,OVC003,0.34,VWS V14.01,2013-10-17 20:46:00,
2013-10-17 16:50:00,48.6,46.7,29.69,West,266,2.0,0.0,93,0.11,,OVC003,0.19,VWS V14.01,2013-10-17 20:50:00,
2013-10-17 16:51:00,48.4,46.5,29.67,West,266,2.0,0.0,93,0.15,,OVC003,0.34,VWS V14.01,2013-10-17 20:51:00,
2013-10-17 16:55:00,48.5,46.6,29.69,West,266,2.0,0.0,93,0.11,,OVC003,0.19,VWS V14.01,2013-10-17 20:55:00,
2013-10-17 16:56:00,48.5,46.9,29.67,West,266,2.0,2.0,94,0.16,,OVC003,0.35,VWS V14.01,2013-10-17 20:56:00,
2013-10-17 17:00:00,48.5,46.6,29.68,West,266,2.0,0.0,93,0.11,,OVC003,0.20,VWS V14.01,2013-10-17 21:00:00,
2013-10-17 17:01:00,48.5,46.9,29.67,West,266,2.0,0.0,94,0.15,,OVC003,0.35,VWS V14.01,2013-10-17 21:01:00,
2013-10-17 17:05:00,48.4,46.5,29.68,West,266,2.0,2.0,93,0.11,,OVC003,0.20,VWS V14.01,2013-10-17 21:05:00,
2013-10-17 17:06:00,48.5,46.9,29.67,West,266,2.0,0.0,94,0.17,,OVC003,0.37,VWS V14.01,2013-10-17 21:06:00,
2013-10-17 17:10:00,48.3,46.4,29.68,West,266,2.0,0.0,93,0.11,,OVC003,0.21,VWS V14.01,2013-10-17 21:10:00,
2013-10-17 17:11:00,48.5,46.9,29.67,West,266,2.0,0.0,94,0.17,,OVC003,0.38,VWS V14.01,2013-10-17 21:11:00,
2013-10-17 17:15:00,48.3,46.4,29.68,West,266,2.0,0.0,93,0.11,,OVC003,0.22,VWS V14.01,2013-10-17 21:15:00,
2013-10-17 17:16:00,48.4,46.8,29.67,NNE,31,2.0,2.0,94,0.16,,OVC003,0.38,VWS V14.01,2013-10-17 21:16:00,
2013-10-17 17:20:00,48.3,46.4,29.68,West,266,2.0,0.0,93,0.12,,OVC003,0.24,VWS V14.01,2013-10-17 21:20:00,
2013-10-17 17:21:00,48.3,46.7,29.67,NNE,31,2.0,0.0,94,0.15,,OVC003,0.39,VWS V14.01,2013-10-17 21:21:00,
2013-10-17 17:25:00,48.3,46.4,29.68,West,266,2.0,0.0,93,0.13,,OVC003,0.26,VWS V14.01,2013-10-17 21:25:00,
2013-10-17 17:26:00,48.0,46.4,29.67,NNE,31,3.0,3.0,94,0.13,,OVC003,0.39,VWS V14.01,2013-10-17 21:26:00,
2013-10-17 17:30:00,48.3,46.4,29.68,West,266,2.0,0.0,93,0.14,,OVC003,0.29,VWS V14.01,2013-10-17 21:30:00,
2013-10-17 17:31:00,47.8,46.2,29.67,NNE,31,2.0,0.0,94,0.11,,OVC003,0.40,VWS V14.01,2013-10-17 21:31:00,
2013-10-17 17:35:00,48.3,46.4,29.68,West,266,2.0,2.0,93,0.16,,OVC003,0.32,VWS V14.01,2013-10-17 21:35:00,
2013-10-17 17:37:00,47.4,45.8,29.67,NNE,31,2.0,2.0,94,0.08,,OVC003,0.40,VWS V14.01,2013-10-17 21:37:00,
2013-10-17 17:40:00,48.2,46.3,29.68,West,266,2.0,0.0,93,0.16,,OVC003,0.33,VWS V14.01,2013-10-17 21:40:00,
2013-10-17 17:42:00,47.3,45.4,29.67,NNE,31,4.0,4.0,93,0.07,,OVC003,0.40,VWS V14.01,2013-10-17 21:42:00,
2013-10-17 17:45:00,48.3,46.4,29.67,West,266,3.0,3.0,93,0.16,,OVC003,0.34,VWS V14.01,2013-10-17 21:45:00,
2013-10-17 17:47:00,47.1,45.5,29.68,NNE,31,2.0,0.0,94,0.06,,OVC003,0.40,VWS V14.01,2013-10-17 21:47:00,
2013-10-17 17:50:00,48.4,46.5,29.67,West,266,2.0,2.0,93,0.16,,OVC003,0.34,VWS V14.01,2013-10-17 21:50:00,
2013-10-17 17:52:00,47.0,45.4,29.68,NNE,31,2.0,2.0,94,0.07,,OVC003,0.41,VWS V14.01,2013-10-17 21:52:00,
2013-10-17 17:55:00,48.5,46.9,29.67,West,266,2.0,0.0,94,0.15,,OVC003,0.34,VWS V14.01,2013-10-17 21:55:00,
2013-10-17 17:57:00,46.9,45.3,29.68,NNE,31,2.0,2.0,94,0.07,,OVC003,0.41,VWS V14.01,2013-10-17 21:57:00,
2013-10-17 18:00:00,48.5,46.9,29.67,West,266,2.0,2.0,94,0.16,,OVC003,0.35,VWS V14.01,2013-10-17 22:00:00,
2013-10-17 18:02:00,46.7,45.1,29.68,NNE,31,2.0,0.0,94,0.06,,OVC003,0.41,VWS V14.01,2013-10-17 22:02:00,
2013-10-17 18:05:00,48.5,46.9,29.67,West,266,2.0,2.0,94,0.16,,OVC003,0.36,VWS V14.01,2013-10-17 22:05:00,
2013-10-17 18:07:00,46.7,45.1,29.68,NNE,31,2.0,0.0,94,0.05,,OVC003,0.41,VWS V14.01,2013-10-17 22:07:00,
2013-10-17 18:10:00,48.5,46.9,29.67,West,266,2.0,0.0,94,0.17,,OVC003,0.37,VWS V14.01,2013-10-17 22:10:00,
2013-10-17 18:12:00,46.7,45.1,29.68,NE,37,2.0,0.0,94,0.04,,OVC003,0.41,VWS V14.01,2013-10-17 22:12:00,
2013-10-17 18:15:00,48.5,46.9,29.67,WNW,292,3.0,3.0,94,0.17,,OVC003,0.38,VWS V14.01,2013-10-17 22:15:00,
2013-10-17 18:17:00,46.7,45.1,29.68,NE,37,2.0,0.0,94,0.04,,OVC003,0.42,VWS V14.01,2013-10-17 22:17:00,
2013-10-17 18:20:00,48.3,46.7,29.67,NNE,31,2.0,2.0,94,0.17,,OVC003,0.39,VWS V14.01,2013-10-17 22:20:00,
2013-10-17 18:22:00,46.7,45.1,29.68,NE,37,2.0,0.0,94,0.03,,OVC003,0.42,VWS V14.01,2013-10-17 22:22:00,
2013-10-17 18:25:00,48.1,46.5,29.67,NNE,31,2.0,0.0,94,0.15,,OVC003,0.39,VWS V14.01,2013-10-17 22:25:00,
2013-10-17 18:27:00,46.6,45.0,29.68,NE,37,2.0,0.0,94,0.03,,OVC003,0.42,VWS V14.01,2013-10-17 22:27:00,
2013-10-17 18:30:00,47.9,46.3,29.67,NNE,31,2.0,2.0,94,0.14,,OVC003,0.40,VWS V14.01,2013-10-17 22:30:00,
2013-10-17 18:32:00,46.5,44.9,29.69,NE,36,2.0,2.0,94,0.03,,OVC003,0.43,VWS V14.01,2013-10-17 22:32:00,
2013-10-17 18:35:00,47.5,45.9,29.67,NNE,31,2.0,2.0,94,0.11,,OVC003,0.40,VWS V14.01,2013-10-17 22:35:00,
2013-10-17 18:37:00,46.5,44.9,29.69,NE,37,2.0,0.0,94,0.03,,OVC003,0.43,VWS V14.01,2013-10-17 22:37:00,
2013-10-17 18:40:00,47.3,45.4,29.67,NNE,31,2.0,2.0,93,0.08,,OVC003,0.40,VWS V14.01,2013-10-17 22:40:00,
2013-10-17 18:42:00,46.4,44.8,29.69,NE,36,2.0,2.0,94,0.04,,OVC003,0.44,VWS V14.01,2013-10-17 22:42:00,
2013-10-17 18:45:00,47.1,45.5,29.68,NNE,31,2.0,2.0,94,0.07,,OVC003,0.40,VWS V14.01,2013-10-17 22:45:00,
2013-10-17 18:47:00,46.3,44.7,29.69,NE,37,2.0,2.0,94,0.04,,OVC003,0.44,VWS V14.01,2013-10-17 22:47:00,
2013-10-17 18:50:00,47.0,45.4,29.68,NNE,31,2.0,2.0,94,0.07,,OVC003,0.41,VWS V14.01,2013-10-17 22:50:00,
2013-10-17 18:52:00,46.3,44.7,29.69,NE,37,2.0,0.0,94,0.04,,OVC003,0.45,VWS V14.01,2013-10-17 22:52:00,
2013-10-17 18:55:00,46.9,45.3,29.68,NNE,31,2.0,2.0,94,0.07,,OVC003,0.41,VWS V14.01,2013-10-17 22:55:00,
2013-10-17 18:57:00,46.3,44.7,29.69,NE,37,2.0,0.0,94,0.05,,OVC003,0.46,VWS V14.01,2013-10-17 22:57:00,
2013-10-17 19:00:00,46.8,45.2,29.68,NNE,31,2.0,3.0,94,0.07,,OVC003,0.41,VWS V14.01,2013-10-17 23:00:00,
2013-10-17 19:02:00,46.2,44.6,29.69,NE,37,2.0,2.0,94,0.05,,OVC003,0.46,VWS V14.01,2013-10-17 23:02:00,
2013-10-17 19:05:00,46.7,45.1,29.68,NNE,31,2.0,2.0,94,0.06,,OVC003,0.41,VWS V14.01,2013-10-17 23:05:00,
2013-10-17 19:07:00,46.1,44.5,29.69,NE,37,2.0,0.0,94,0.05,,OVC003,0.46,VWS V14.01,2013-10-17 23:07:00,
2013-10-17 19:10:00,46.6,45.0,29.68,NE,37,2.0,2.0,94,0.05,,OVC003,0.41,VWS V14.01,2013-10-17 23:10:00,
2013-10-17 19:12:00,46.1,44.5,29.69,NE,36,2.0,0.0,94,0.06,,OVC003,0.47,VWS V14.01,2013-10-17 23:12:00,
2013-10-17 19:15:00,46.7,45.1,29.68,NE,37,2.0,2.0,94,0.05,,OVC003,0.42,VWS V14.01,2013-10-17 23:15:00,
2013-10-17 19:17:00,46.2,44.6,29.70,NE,36,2.0,0.0,94,0.05,,OVC003,0.47,VWS V14.01,2013-10-17 23:17:00,
2013-10-17 19:20:00,46.7,45.1,29.68,NE,37,2.0,2.0,94,0.04,,OVC003,0.42,VWS V14.01,2013-10-17 23:20:00,
2013-10-17 19:22:00,46.1,44.5,29.70,NE,36,2.0,0.0,94,0.05,,OVC003,0.47,VWS V14.01,2013-10-17 23:22:00,
2013-10-17 19:25:00,46.6,45.0,29.68,NE,37,2.0,0.0,94,0.03,,OVC003,0.42,VWS V14.01,2013-10-17 23:25:00,
2013-10-17 19:27:00,46.2,44.6,29.70,NE,36,2.0,0.0,94,0.05,,OVC003,0.47,VWS V14.01,2013-10-17 23:27:00,
2013-10-17 19:30:00,46.6,45.0,29.69,NE,37,2.0,0.0,94,0.03,,OVC003,0.42,VWS V14.01,2013-10-17 23:30:00,
2013-10-17 19:32:00,46.2,44.6,29.71,NE,37,2.0,0.0,94,0.05,,OVC003,0.47,VWS V14.01,2013-10-17 23:32:00,
2013-10-17 19:35:00,46.5,44.9,29.69,NE,37,2.0,2.0,94,0.03,,OVC003,0.43,VWS V14.01,2013-10-17 23:35:00,
2013-10-17 19:37:00,46.1,44.5,29.71,NE,36,2.0,0.0,94,0.04,,OVC003,0.47,VWS V14.01,2013-10-17 23:37:00,
2013-10-17 19:40:00,46.4,44.8,29.69,NE,37,2.0,0.0,94,0.03,,OVC003,0.43,VWS V14.01,2013-10-17 23:40:00,
2013-10-17 19:42:00,46.1,44.5,29.71,NE,37,2.0,0.0,94,0.05,,OVC003,0.48,VWS V14.01,2013-10-17 23:42:00,
2013-10-17 19:45:00,46.4,44.8,29.69,NE,36,2.0,2.0,94,0.04,,OVC003,0.44,VWS V14.01,2013-10-17 23:45:00,
2013-10-17 19:47:00,46.1,44.5,29.72,NE,37,2.0,0.0,94,0.04,,OVC003,0.48,VWS V14.01,2013-10-17 23:47:00,
2013-10-17 19:50:00,46.3,44.7,29.69,NE,37,2.0,2.0,94,0.05,,OVC003,0.45,VWS V14.01,2013-10-17 23:50:00,
2013-10-17 19:52:00,46.0,44.4,29.72,NE,36,2.0,2.0,94,0.03,,OVC003,0.48,VWS V14.01,2013-10-17 23:52:00,
2013-10-17 19:55:00,46.3,44.7,29.69,NE,37,2.0,0.0,94,0.05,,OVC003,0.46,VWS V14.01,2013-10-17 23:55:00,
2013-10-17 19:57:00,46.0,44.4,29.72,NE,36,2.0,0.0,94,0.02,,OVC003,0.48,VWS V14.01,2013-10-17 23:57:00,
2013-10-17 20:00:00,46.2,44.6,29.69,NE,36,3.0,3.0,94,0.05,,OVC003,0.46,VWS V14.01,2013-10-18 00:00:00,
2013-10-17 20:02:00,45.9,44.3,29.72,NE,36,2.0,0.0,94,0.02,,OVC003,0.48,VWS V14.01,2013-10-18 00:02:00,
2013-10-17 20:05:00,46.2,44.6,29.69,NE,37,2.0,2.0,94,0.05,,OVC003,0.46,VWS V14.01,2013-10-18 00:05:00,
2013-10-17 20:07:00,45.8,44.2,29.72,NE,37,2.0,0.0,94,0.02,,OVC003,0.48,VWS V14.01,2013-10-18 00:07:00,
2013-10-17 20:10:00,46.1,44.5,29.69,NE,37,2.0,0.0,94,0.05,,OVC003,0.46,VWS V14.01,2013-10-18 00:10:00,
2013-10-17 20:12:00,45.7,44.1,29.72,NE,37,2.0,0.0,94,0.02,,OVC003,0.48,VWS V14.01,2013-10-18 00:12:00,
2013-10-17 20:15:00,46.2,44.6,29.70,NE,36,2.0,0.0,94,0.06,,OVC003,0.47,VWS V14.01,2013-10-18 00:15:00,
2013-10-17 20:17:00,45.6,44.0,29.72,NE,37,2.0,0.0,94,0.01,,OVC003,0.48,VWS V14.01,2013-10-18 00:17:00,
2013-10-17 20:20:00,46.1,44.5,29.70,NE,36,2.0,0.0,94,0.05,,OVC003,0.47,VWS V14.01,2013-10-18 00:20:00,
2013-10-17 20:22:00,45.5,43.9,29.72,NE,37,2.0,0.0,94,0.01,,OVC003,0.48,VWS V14.01,2013-10-18 00:22:00,
2013-10-17 20:25:00,46.2,44.6,29.70,NE,36,2.0,0.0,94,0.05,,OVC003,0.47,VWS V14.01,2013-10-18 00:25:00,
2013-10-17 20:27:00,45.5,43.9,29.72,NE,37,2.0,0.0,94,0.01,,OVC003,0.48,VWS V14.01,2013-10-18 00:27:00,
2013-10-17 20:30:00,46.2,44.6,29.71,NE,37,2.0,0.0,94,0.05,,OVC003,0.47,VWS V14.01,2013-10-18 00:30:00,
2013-10-17 20:32:00,45.5,43.9,29.72,NE,36,2.0,0.0,94,0.01,,OVC003,0.48,VWS V14.01,2013-10-18 00:32:00,
2013-10-17 20:35:00,46.1,44.5,29.71,NE,37,2.0,0.0,94,0.05,,OVC003,0.47,VWS V14.01,2013-10-18 00:35:00,
2013-10-17 20:37:00,45.5,43.9,29.72,NE,36,2.0,0.0,94,0.01,,OVC003,0.48,VWS V14.01,2013-10-18 00:37:00,
2013-10-17 20:40:00,46.1,44.5,29.71,NE,36,2.0,0.0,94,0.05,,OVC003,0.48,VWS V14.01,2013-10-18 00:40:00,
2013-10-17 20:42:00,45.4,43.8,29.72,NE,36,2.0,0.0,94,0.00,,OVC003,0.48,VWS V14.01,2013-10-18 00:42:00,
2013-10-17 20:45:00,46.1,44.5,29.72,NE,37,2.0,0.0,94,0.05,,OVC003,0.48,VWS V14.01,2013-10-18 00:45:00,
2013-10-17 20:47:00,45.4,43.8,29.73,NE,37,2.0,0.0,94,0.00,,OVC003,0.48,VWS V14.01,2013-10-18 00:47:00,
2013-10-17 20:50:00,46.1,44.5,29.72,NE,37,2.0,0.0,94,0.04,,OVC003,0.48,VWS V14.01,2013-10-18 00:50:00,
2013-10-17 20:52:00,45.4,43.8,29.73,NE,37,2.0,2.0,94,0.00,,OVC003,0.48,VWS V14.01,2013-10-18 00:52:00,
2013-10-17 20:55:00,46.0,44.4,29.72,NE,37,2.0,2.0,94,0.03,,OVC003,0.48,VWS V14.01,2013-10-18 00:55:00,
2013-10-17 20:57:00,45.4,43.8,29.73,NE,37,2.0,0.0,94,0.00,,OVC003,0.48,VWS V14.01,2013-10-18 00:57:00,
2013-10-17 21:00:00,45.9,44.3,29.72,NE,37,2.0,0.0,94,0.02,,OVC003,0.48,VWS V14.01,2013-10-18 01:00:00,
2013-10-17 21:02:00,45.4,43.8,29.74,NE,37,2.0,0.0,94,0.00,,OVC003,0.48,VWS V14.01,2013-10-18 01:02:00,
2013-10-17 21:05:00,45.8,44.2,29.72,NE,37,2.0,0.0,94,0.02,,OVC003,0.48,VWS V14.01,2013-10-18 01:05:00,
2013-10-17 21:07:00,45.4,43.8,29.74,NE,37,2.0,0.0,94,0.00,,OVC003,0.48,VWS V14.01,2013-10-18 01:07:00,
2013-10-17 21:10:00,45.7,44.1,29.72,NE,37,2.0,0.0,94,0.02,,OVC003,0.48,VWS V14.01,2013-10-18 01:10:00,
2013-10-17 21:12:00,45.4,43.8,29.74,NE,36,2.0,0.0,94,0.00,,OVC003,0.48,VWS V14.01,2013-10-18 01:12:00,
2013-10-17 21:15:00,45.6,44.0,29.72,NE,37,2.0,0.0,94,0.02,,OVC003,0.48,VWS V14.01,2013-10-18 01:15:00,
2013-10-17 21:17:00,45.4,43.8,29.74,NE,36,2.0,0.0,94,0.00,,OVC003,0.48,VWS V14.01,2013-10-18 01:17:00,
2013-10-17 21:20:00,45.5,43.9,29.72,NE,37,2.0,0.0,94,0.01,,OVC003,0.48,VWS V14.01,2013-10-18 01:20:00,
2013-10-17 21:22:00,45.4,43.8,29.74,NE,36,2.0,0.0,94,0.00,,OVC003,0.48,VWS V14.01,2013-10-18 01:22:00,
2013-10-17 21:25:00,45.5,43.9,29.72,NE,37,2.0,0.0,94,0.01,,OVC003,0.48,VWS V14.01,2013-10-18 01:25:00,
2013-10-17 21:27:00,45.4,43.8,29.74,NE,37,2.0,0.0,94,0.01,,OVC003,0.49,VWS V14.01,2013-10-18 01:27:00,
2013-10-17 21:30:00,45.5,43.9,29.72,NE,36,2.0,0.0,94,0.01,,OVC003,0.48,VWS V14.01,2013-10-18 01:30:00,
2013-10-17 21:32:00,45.4,43.8,29.75,NE,37,2.0,0.0,94,0.01,,OVC003,0.49,VWS V14.01,2013-10-18 01:32:00,
2013-10-17 21:35:00,45.5,43.9,29.72,NE,36,2.0,0.0,94,0.01,,OVC003,0.48,VWS V14.01,2013-10-18 01:35:00,
2013-10-17 21:37:00,45.4,43.8,29.75,NE,36,2.0,0.0,94,0.01,,OVC003,0.49,VWS V14.01,2013-10-18 01:37:00,
2013-10-17 21:40:00,45.4,43.8,29.72,NE,37,2.0,0.0,94,0.01,,OVC003,0.48,VWS V14.01,2013-10-18 01:40:00,
2013-10-17 21:42:00,45.4,43.8,29.75,NE,37,2.0,2.0,94,0.01,,OVC003,0.49,VWS V14.01,2013-10-18 01:42:00,
2013-10-17 21:45:00,45.4,43.8,29.73,NE,37,2.0,0.0,94,0.00,,OVC003,0.48,VWS V14.01,2013-10-18 01:45:00,
2013-10-17 21:47:00,45.4,43.8,29.75,NE,36,2.0,0.0,94,0.01,,OVC003,0.49,VWS V14.01,2013-10-18 01:47:00,
2013-10-17 21:50:00,45.4,43.8,29.73,NE,37,2.0,0.0,94,0.00,,OVC003,0.48,VWS V14.01,2013-10-18 01:50:00,
2013-10-17 21:52:00,45.3,43.7,29.75,NE,36,2.0,2.0,94,0.01,,OVC003,0.49,VWS V14.01,2013-10-18 01:52:00,
2013-10-17 21:55:00,45.4,43.8,29.73,NE,36,2.0,2.0,94,0.00,,OVC003,0.48,VWS V14.01,2013-10-18 01:55:00,
2013-10-17 21:57:00,45.3,43.7,29.75,NE,36,2.0,0.0,94,0.01,,OVC003,0.49,VWS V14.01,2013-10-18 01:57:00,
2013-10-17 22:00:00,45.3,43.7,29.74,NE,36,2.0,0.0,94,0.00,,OVC003,0.48,VWS V14.01,2013-10-18 02:00:00,
2013-10-17 22:03:00,45.2,43.6,29.76,NW,312,2.0,0.0,94,0.01,,OVC003,0.49,VWS V14.01,2013-10-18 02:03:00,
2013-10-17 22:05:00,45.4,43.8,29.74,NE,36,2.0,0.0,94,0.00,,OVC003,0.48,VWS V14.01,2013-10-18 02:05:00,
2013-10-17 22:08:00,45.1,43.5,29.76,NW,312,2.0,0.0,94,0.01,,OVC003,0.49,VWS V14.01,2013-10-18 02:08:00,
2013-10-17 22:10:00,45.4,43.8,29.74,NE,37,2.0,0.0,94,0.00,,OVC003,0.48,VWS V14.01,2013-10-18 02:10:00,
2013-10-17 22:13:00,45.0,43.4,29.76,WNW,284,2.0,2.0,94,0.01,,OVC003,0.49,VWS V14.01,2013-10-18 02:13:00,
2013-10-17 22:15:00,45.4,43.8,29.74,NE,37,2.0,0.0,94,0.00,,OVC003,0.48,VWS V14.01,2013-10-18 02:15:00,
2013-10-17 22:18:00,44.7,43.1,29.76,WNW,284,2.0,2.0,94,0.01,,OVC003,0.49,VWS V14.01,2013-10-18 02:18:00,
2013-10-17 22:20:00,45.4,43.8,29.74,NE,37,2.0,0.0,94,0.00,,OVC003,0.48,VWS V14.01,2013-10-18 02:20:00,
2013-10-17 22:23:00,44.5,42.9,29.76,WNW,284,2.0,0.0,94,0.01,,OVC003,0.49,VWS V14.01,2013-10-18 02:23:00,
2013-10-17 22:25:00,45.4,43.8,29.74,NE,37,2.0,0.0,94,0.01,,OVC003,0.49,VWS V14.01,2013-10-18 02:25:00,
2013-10-17 22:28:00,44.3,42.7,29.76,WNW,284,2.0,0.0,94,0.00,,OVC003,0.49,VWS V14.01,2013-10-18 02:28:00,
2013-10-17 22:30:00,45.4,43.8,29.75,NE,36,2.0,0.0,94,0.01,,OVC003,0.49,VWS V14.01,2013-10-18 02:30:00,
2013-10-17 22:33:00,44.1,42.5,29.77,West,278,3.0,5.0,94,0.00,,OVC003,0.49,VWS V14.01,2013-10-18 02:33:00,
2013-10-17 22:35:00,45.4,43.8,29.75,NE,37,2.0,2.0,94,0.01,,OVC003,0.49,VWS V14.01,2013-10-18 02:35:00,
2013-10-17 22:38:00,43.8,42.2,29.77,West,278,2.0,2.0,94,0.00,,OVC003,0.49,VWS V14.01,2013-10-18 02:38:00,
2013-10-17 22:40:00,45.4,43.8,29.75,NE,36,2.0,0.0,94,0.01,,OVC003,0.49,VWS V14.01,2013-10-18 02:40:00,
2013-10-17 22:43:00,43.6,42.0,29.77,West,278,2.0,2.0,94,0.00,,OVC003,0.49,VWS V14.01,2013-10-18 02:43:00,
2013-10-17 22:45:00,45.4,43.8,29.75,NE,36,2.0,2.0,94,0.01,,OVC003,0.49,VWS V14.01,2013-10-18 02:45:00,
2013-10-17 22:48:00,43.4,41.8,29.77,West,278,2.0,2.0,94,0.00,,OVC003,0.49,VWS V14.01,2013-10-18 02:48:00,
2013-10-17 22:50:00,45.3,43.7,29.75,NE,36,2.0,0.0,94,0.01,,OVC003,0.49,VWS V14.01,2013-10-18 02:50:00,
2013-10-17 22:53:00,43.2,41.6,29.77,West,278,2.0,0.0,94,0.00,,OVC003,0.49,VWS V14.01,2013-10-18 02:53:00,
2013-10-17 22:55:00,45.3,43.7,29.75,NE,37,2.0,2.0,94,0.01,,OVC003,0.49,VWS V14.01,2013-10-18 02:55:00,
2013-10-17 22:58:00,43.0,41.4,29.77,West,278,2.0,0.0,94,0.00,,OVC003,0.49,VWS V14.01,2013-10-18 02:58:00,
2013-10-17 23:00:00,45.2,43.6,29.76,NW,312,2.0,4.0,94,0.01,,OVC003,0.49,VWS V14.01,2013-10-18 03:00:00,
2013-10-17 23:03:00,42.8,41.2,29.77,West,278,2.0,0.0,94,0.00,,OVC003,0.49,VWS V14.01,2013-10-18 03:03:00,
2013-10-17 23:05:00,45.2,43.6,29.76,NW,312,2.0,0.0,94,0.01,,OVC003,0.49,VWS V14.01,2013-10-18 03:05:00,
2013-10-17 23:08:00,42.7,41.1,29.77,West,278,2.0,0.0,94,0.00,,OVC003,0.49,VWS V14.01,2013-10-18 03:08:00,
2013-10-17 23:10:00,45.0,43.4,29.76,NW,312,2.0,2.0,94,0.01,,OVC003,0.49,VWS V14.01,2013-10-18 03:10:00,
2013-10-17 23:13:00,42.5,40.9,29.77,West,278,2.0,2.0,94,0.00,,OVC003,0.49,VWS V14.01,2013-10-18 03:13:00,
2013-10-17 23:15:00,44.9,43.3,29.76,WNW,284,2.0,2.0,94,0.01,,OVC003,0.49,VWS V14.01,2013-10-18 03:15:00,
2013-10-17 23:18:00,42.4,40.8,29.76,West,278,2.0,0.0,94,0.00,,OVC003,0.49,VWS V14.01,2013-10-18 03:18:00,
2013-10-17 23:20:00,44.6,43.0,29.76,WNW,284,2.0,2.0,94,0.01,,OVC003,0.49,VWS V14.01,2013-10-18 03:20:00,
2013-10-17 23:23:00,42.3,40.7,29.76,West,278,2.0,0.0,94,0.00,,OVC003,0.49,VWS V14.01,2013-10-18 03:23:00,
2013-10-17 23:25:00,44.4,42.8,29.76,WNW,284,2.0,2.0,94,0.01,,OVC003,0.49,VWS V14.01,2013-10-18 03:25:00,
2013-10-17 23:28:00,42.0,40.4,29.76,West,278,2.0,0.0,94,0.00,,OVC003,0.49,VWS V14.01,2013-10-18 03:28:00,
2013-10-17 23:30:00,44.2,42.6,29.77,WNW,284,2.0,2.0,94,0.00,,OVC003,0.49,VWS V14.01,2013-10-18 03:30:00,
2013-10-17 23:33:00,41.9,40.3,29.75,West,278,2.0,0.0,94,0.00,,OVC003,0.49,VWS V14.01,2013-10-18 03:33:00,
2013-10-17 23:35:00,43.9,42.3,29.77,West,278,3.0,5.0,94,0.00,,OVC003,0.49,VWS V14.01,2013-10-18 03:35:00,
2013-10-17 23:38:00,41.7,40.1,29.75,West,278,2.0,0.0,94,0.00,,OVC003,0.49,VWS V14.01,2013-10-18 03:38:00,
2013-10-17 23:40:00,43.6,42.0,29.77,West,278,2.0,2.0,94,0.00,,OVC003,0.49,VWS V14.01,2013-10-18 03:40:00,
2013-10-17 23:43:00,41.4,39.8,29.75,West,278,2.0,0.0,94,0.00,,OVC003,0.49,VWS V14.01,2013-10-18 03:43:00,
2013-10-17 23:45:00,43.5,41.9,29.77,West,278,2.0,2.0,94,0.00,,OVC003,0.49,VWS V14.01,2013-10-18 03:45:00,
2013-10-17 23:48:00,41.2,39.6,29.75,West,278,2.0,0.0,94,0.00,,OVC003,0.49,VWS V14.01,2013-10-18 03:48:00,
2013-10-17 23:50:00,43.3,41.7,29.77,West,278,2.0,2.0,94,0.00,,OVC003,0.49,VWS V14.01,2013-10-18 03:50:00,
2013-10-17 23:53:00,41.0,39.4,29.75,West,278,2.0,0.0,94,0.00,,OVC003,0.49,VWS V14.01,2013-10-18 03:53:00,
2013-10-17 23:55:00,43.1,41.5,29.77,West,278,2.0,0.0,94,0.00,,OVC003,0.49,VWS V14.01,2013-10-18 03:55:00,
2013-10-17 23:58:00,40.8,39.2,29.75,West,278,2.0,0.0,94,0.00,,OVC003,0.49,VWS V14.01,2013-10-18 03:58:00,